Terminal Aerodrome Forecast
Issued by NWS

Home | Current Version | Previous Version | Text Only | Print | Product List | Glossary On
Versions: 1 2 3 4 5 6 7 8 9 10 11 12
000
FTUS43 KPAH 032331
TAFOWB
TAF
KOWB 032331Z 0400/0424 09003KT P6SM SCT100 BKN250
     FM040300 06003KT P6SM SCT050 OVC100
     FM040900 07005KT 4SM -RA BR SCT015 OVC040
     FM041800 20006KT P6SM VCSH BKN020=

USA.gov is the U.S. government's official web portal to all federal, state and local government web resources and services.